Pagrindinis puslapis
METAR-TAF:

METAR-TAF

Oro uostai :

Tarantas, Italija

platuma: 40-31N, ilguma: 017-24E, Aukštis: 64 m

Dabartinis oras

Ataskaita buvo paskelbta 2 valandos ir 11 minutes, ne 11:50 UTC
Vėjas 9 kt iš Šiaurės, svyruoja nuo Šiaurės Vakarų ir Rytų/Šiaurės Rytų
Temperatūra 23°C
Drėgmė 41%
Slėgis 1014 hPa
Matomumas 10 km arba daugiau
Išsisklaidę debesys ne aukštis 3000 ft

METAR: LIBG 011150Z 36009KT 320V070 9999 SCT030 23/09 Q1014

Laikas: 16:01 (14:01 UTC)

Prognozė

Ataskaita buvo paskelbta 1 minutes, ne 14:00 UTC
Prognozė galioja nuo 31 metu 15 UTC su 31 metu 24 UTC
Vėjas 10 kt iš Pietvakarių
Matomumas 10 km arba daugiau
Išsisklaidę debesys ne aukštis 2500 ft
Tapsmas
nuo 31 metu 15 UTC su 31 metu 17 UTC
Vėjas 5 kt nuo kintamojo kryptimis

TAF: LIBG 311400Z 3115/3124 23010KT 9999 SCT025 BECMG 3115/3117 VRB05KT

Orai ataskaitas ir orų prognozės (METAR, TAF).

turimą stotys yra geltonos ir raudonos taškus žemėlapyje.

Perkelti pele per norėdami pamatyti stoties vardą.

Tada spustelėkite, norėdami matyti oro stebėjimo ir prognozės.

Norėdami pakeisti žemėlapį: spustelėkite ant žalios mygtukų su juodo kryžiaus žemyn,; žalią mygtuką su brūkšneliu, jei norite nutolinti; arba žalių rodyklių gretimoms žemėlapius.


METAR-TAF: